createdAt,value
2019-03-01T00:01:23.958Z,94317.42
2019-03-01T00:03:55.485Z,94325.36
2019-03-01T00:06:41.704Z,94316.35
2019-03-01T00:09:13.250Z,94315.80
2019-03-01T00:12:03.135Z,94322.59
2019-03-01T00:14:56.131Z,94325.14
2019-03-01T00:17:36.957Z,94327.34
2019-03-01T00:20:32.795Z,94318.08
2019-03-01T00:23:12.620Z,94315.17
2019-03-01T00:25:55.678Z,94315.72
2019-03-01T00:28:45.393Z,94316.00
2019-03-01T00:31:22.411Z,94313.19
2019-03-01T00:34:05.826Z,94304.69
2019-03-01T00:36:40.328Z,94302.98
2019-03-01T00:39:14.873Z,94301.27
2019-03-01T00:41:49.351Z,94296.55
2019-03-01T00:44:40.186Z,94297.13
2019-03-01T00:47:08.857Z,94288.00
2019-03-01T00:49:37.641Z,94282.95
2019-03-01T00:52:06.501Z,94273.45
2019-03-01T00:54:35.135Z,94280.05
2019-03-01T00:57:04.053Z,94274.33
2019-03-01T00:59:40.048Z,94278.88
2019-03-01T01:02:08.605Z,94269.72
2019-03-01T01:04:37.325Z,94275.91
2019-03-01T01:07:05.982Z,94264.87
2019-03-01T01:09:34.556Z,94270.55
2019-03-01T01:12:03.042Z,94259.51
2019-03-01T01:14:31.631Z,94258.58
2019-03-01T01:17:00.351Z,94250.20
2019-03-01T01:19:28.915Z,94250.00
2019-03-01T01:21:57.508Z,94246.96
2019-03-01T01:24:26.123Z,94263.66
2019-03-01T01:26:54.680Z,94265.75
2019-03-01T01:29:23.286Z,94271.52
2019-03-01T01:31:51.913Z,94263.85
2019-03-01T01:34:20.548Z,94266.68
2019-03-01T01:36:49.074Z,94262.89
2019-03-01T01:39:17.622Z,94265.97
2019-03-01T01:41:46.252Z,94267.97
2019-03-01T01:44:15.011Z,94259.94
2019-03-01T01:46:43.513Z,94259.94
2019-03-01T01:49:12.074Z,94271.66
2019-03-01T01:51:40.961Z,94263.02
2019-03-01T01:54:09.604Z,94262.37
2019-03-01T01:56:38.085Z,94259.41
2019-03-01T01:59:06.743Z,94265.94
2019-03-01T02:01:35.290Z,94267.77
2019-03-01T02:04:03.909Z,94267.25
2019-03-01T02:06:32.572Z,94280.62
2019-03-01T02:09:01.315Z,94280.09
2019-03-01T02:11:29.881Z,94281.48
2019-03-01T02:13:58.544Z,94276.64
2019-03-01T02:16:27.171Z,94279.63
2019-03-01T02:18:58.005Z,94275.19
2019-03-01T02:21:26.044Z,94277.34
2019-03-01T02:23:54.602Z,94276.41
2019-03-01T02:26:23.249Z,94267.66
2019-03-01T02:28:52.068Z,94265.23
2019-03-01T02:31:20.554Z,94265.53
2019-03-01T02:33:49.116Z,94266.56
2019-03-01T02:36:17.778Z,94257.20
2019-03-01T02:38:46.338Z,94257.60
2019-03-01T02:41:14.956Z,94246.09
2019-03-01T02:43:43.545Z,94239.77
2019-03-01T02:46:12.121Z,94247.98
2019-03-01T02:48:40.677Z,94239.05
2019-03-01T02:51:09.342Z,94228.02
2019-03-01T02:53:37.903Z,94230.66
2019-03-01T02:56:06.462Z,94243.00
2019-03-01T02:58:35.051Z,94251.68
2019-03-01T03:01:03.686Z,94250.27
2019-03-01T03:03:32.303Z,94251.46
2019-03-01T03:06:02.466Z,94260.98
2019-03-01T03:08:31.038Z,94258.89
2019-03-01T03:10:59.662Z,94260.94
2019-03-01T03:13:28.507Z,94260.32
2019-03-01T03:15:57.134Z,94263.30
2019-03-01T03:18:25.689Z,94264.36
2019-03-01T03:20:54.254Z,94261.06
2019-03-01T03:23:22.861Z,94267.01
2019-03-01T03:25:51.484Z,94264.36
2019-03-01T03:28:20.028Z,94276.01
2019-03-01T03:30:48.583Z,94276.24
2019-03-01T03:33:17.258Z,94268.65
2019-03-01T03:35:45.884Z,94273.19
2019-03-01T03:38:14.480Z,94279.53
2019-03-01T03:40:43.043Z,94271.70
2019-03-01T03:43:11.858Z,94288.39
2019-03-01T03:45:40.533Z,94290.17
2019-03-01T03:48:09.090Z,94297.91
2019-03-01T03:50:37.639Z,94291.27
2019-03-01T03:53:06.232Z,94293.73
2019-03-01T03:55:34.877Z,94288.16
2019-03-01T03:58:03.497Z,94293.23
2019-03-01T04:00:32.091Z,94282.31
2019-03-01T04:03:00.650Z,94277.37
2019-03-01T04:05:29.129Z,94279.86
2019-03-01T04:07:57.987Z,94274.64
2019-03-01T04:10:26.661Z,94277.55
2019-03-01T04:12:55.227Z,94277.30
2019-03-01T04:15:23.802Z,94282.81
2019-03-01T04:17:52.354Z,94282.56
2019-03-01T04:20:21.285Z,94282.75
2019-03-01T04:22:49.906Z,94281.64
2019-03-01T04:25:18.389Z,94290.67
2019-03-01T04:27:46.957Z,94288.05
2019-03-01T04:30:17.273Z,94290.61
2019-03-01T04:32:45.995Z,94283.06
2019-03-01T04:35:15.091Z,94287.33
2019-03-01T04:37:44.133Z,94289.27
2019-03-01T04:40:16.053Z,94286.11
2019-03-01T04:42:44.769Z,94290.67
2019-03-01T04:45:17.710Z,94303.92
2019-03-01T04:47:46.270Z,94303.02
2019-03-01T04:50:14.956Z,94308.30
2019-03-01T04:52:43.709Z,94313.40
2019-03-01T04:55:20.910Z,94315.18
2019-03-01T04:57:49.494Z,94315.30
2019-03-01T05:00:25.387Z,94308.78
2019-03-01T05:02:54.114Z,94301.02
2019-03-01T05:05:22.791Z,94303.55
2019-03-01T05:07:51.351Z,94303.97
2019-03-01T05:10:19.967Z,94308.02
2019-03-01T05:12:48.638Z,94304.97
2019-03-01T05:15:22.263Z,94306.36
2019-03-01T05:17:50.833Z,94307.96
2019-03-01T05:20:19.622Z,94307.30
2019-03-01T05:22:48.195Z,94312.95
2019-03-01T05:25:16.805Z,94315.11
2019-03-01T05:27:45.429Z,94315.84
2019-03-01T05:30:17.942Z,94319.44
2019-03-01T05:32:46.580Z,94310.11
2019-03-01T05:35:15.321Z,94317.53
2019-03-01T05:37:43.948Z,94320.66
2019-03-01T05:40:16.312Z,94318.92
2019-03-01T05:42:45.172Z,94311.67
2019-03-01T05:45:16.585Z,94318.64
2019-03-01T05:47:45.149Z,94321.48
2019-03-01T05:50:15.120Z,94332.59
2019-03-01T05:52:43.764Z,94318.84
2019-03-01T05:55:12.996Z,94326.07
2019-03-01T05:58:17.621Z,94332.99
2019-03-01T06:00:46.446Z,94328.94
2019-03-01T06:03:46.121Z,94341.62
2019-03-01T06:06:35.267Z,94334.27
2019-03-01T06:09:21.655Z,94343.32
2019-03-01T06:12:12.872Z,94338.53
2019-03-01T06:14:44.464Z,94342.75
2019-03-01T06:17:44.802Z,94338.84
2019-03-01T06:20:40.409Z,94338.87
2019-03-01T06:23:23.811Z,94339.06
2019-03-01T06:26:11.738Z,94332.06
2019-03-01T06:28:43.359Z,94334.39
2019-03-01T06:31:17.464Z,94335.63
2019-03-01T06:34:11.487Z,94335.02
2019-03-01T06:37:07.148Z,94340.19
2019-03-01T06:39:42.856Z,94337.59
2019-03-01T06:42:38.647Z,94343.59
2019-03-01T06:45:25.030Z,94342.34
2019-03-01T06:47:53.665Z,94335.48
2019-03-01T06:50:23.918Z,94336.03
2019-03-01T06:52:52.555Z,94340.14
2019-03-01T06:55:41.550Z,94346.44
2019-03-01T06:58:13.292Z,94344.25
2019-03-01T07:00:50.230Z,94338.87
2019-03-01T07:03:13.908Z,94346.11
2019-03-01T07:05:42.454Z,94335.19
2019-03-01T07:08:11.012Z,94339.30
2019-03-01T07:10:39.685Z,94345.52
2019-03-01T07:13:08.310Z,94338.42
2019-03-01T07:15:36.952Z,94338.11
2019-03-01T07:18:05.569Z,94337.26
2019-03-01T07:20:34.205Z,94337.62
2019-03-01T07:23:02.792Z,94340.90
2019-03-01T07:25:31.399Z,94342.79
2019-03-01T07:28:00.031Z,94346.95
2019-03-01T07:30:34.813Z,94337.54
2019-03-01T07:33:03.501Z,94328.19
2019-03-01T07:35:32.132Z,94333.80
2019-03-01T07:38:00.692Z,94343.79
2019-03-01T07:40:29.229Z,94333.62
2019-03-01T07:42:57.789Z,94336.16
2019-03-01T07:45:26.502Z,94334.55
2019-03-01T07:47:55.434Z,94332.07
2019-03-01T07:50:23.935Z,94329.45
2019-03-01T07:52:52.493Z,94327.32
2019-03-01T07:55:21.189Z,94335.28
2019-03-01T07:57:50.640Z,94319.67
2019-03-01T08:00:19.342Z,94320.25
2019-03-01T08:02:47.950Z,94327.19
2019-03-01T08:05:16.796Z,94319.53
2019-03-01T08:07:55.419Z,94330.22
2019-03-01T08:10:20.727Z,94322.34
2019-03-01T08:12:47.516Z,94331.52
2019-03-01T08:15:17.482Z,94324.72
2019-03-01T08:17:46.164Z,94321.48
2019-03-01T08:20:16.301Z,94332.88
2019-03-01T08:22:48.935Z,94337.75
2019-03-01T08:25:22.912Z,94340.48
2019-03-01T08:27:46.294Z,94343.38
2019-03-01T08:30:19.469Z,94340.88
2019-03-01T08:32:48.351Z,94348.64
2019-03-01T08:35:18.482Z,94344.16
2019-03-01T08:37:49.774Z,94345.55
2019-03-01T08:40:18.192Z,94361.55
2019-03-01T08:42:46.749Z,94360.72
2019-03-01T08:45:20.142Z,94351.38
2019-03-01T08:47:49.276Z,94363.23
2019-03-01T08:50:18.481Z,94365.20
2019-03-01T08:52:47.367Z,94364.38
2019-03-01T08:55:22.198Z,94373.43
2019-03-01T08:57:51.407Z,94367.02
2019-03-01T09:00:28.850Z,94358.09
2019-03-01T09:03:00.191Z,94362.52
2019-03-01T09:05:28.821Z,94358.38
2019-03-01T09:07:57.442Z,94350.20
2019-03-01T09:10:29.189Z,94354.34
2019-03-01T09:12:56.245Z,94344.55
2019-03-01T09:15:24.897Z,94349.79
2019-03-01T09:17:53.455Z,94358.73
2019-03-01T09:20:22.022Z,94361.23
2019-03-01T09:22:50.667Z,94362.30
2019-03-01T09:25:19.228Z,94356.44
2019-03-01T09:27:47.866Z,94354.98
2019-03-01T09:30:26.626Z,94354.61
2019-03-01T09:32:55.196Z,94353.36
2019-03-01T09:35:39.734Z,94348.84
2019-03-01T09:38:08.449Z,94334.16
2019-03-01T09:40:37.154Z,94347.09
2019-03-01T09:43:06.122Z,94342.41
2019-03-01T09:45:36.463Z,94346.95
2019-03-01T09:48:05.247Z,94330.61
2019-03-01T09:50:34.476Z,94341.20
2019-03-01T09:53:04.202Z,94335.91
2019-03-01T09:55:34.746Z,94335.66
2019-03-01T09:58:03.295Z,94326.96
2019-03-01T10:00:34.888Z,94336.13
2019-03-01T10:03:03.518Z,94329.00
2019-03-01T10:05:32.128Z,94332.33
2019-03-01T10:08:00.619Z,94324.63
2019-03-01T10:10:31.699Z,94327.22
2019-03-01T10:13:00.302Z,94326.02
2019-03-01T10:15:29.026Z,94330.02
2019-03-01T10:17:57.591Z,94322.47
2019-03-01T10:20:26.261Z,94310.33
2019-03-01T10:22:54.757Z,94322.27
2019-03-01T10:25:23.491Z,94321.47
2019-03-01T10:27:52.102Z,94314.11
2019-03-01T10:30:28.411Z,94324.05
2019-03-01T10:32:57.237Z,94311.88
2019-03-01T10:35:25.876Z,94307.65
2019-03-01T10:37:54.437Z,94308.53
2019-03-01T10:40:25.042Z,94297.70
2019-03-01T10:42:53.603Z,94303.45
2019-03-01T10:45:24.241Z,94290.92
2019-03-01T10:47:52.825Z,94299.66
2019-03-01T10:50:21.470Z,94300.30
2019-03-01T10:52:50.518Z,94296.45
2019-03-01T10:55:19.924Z,94293.69
2019-03-01T10:57:48.958Z,94288.11
2019-03-01T11:00:22.778Z,94275.58
2019-03-01T11:02:51.613Z,94274.34
2019-03-01T11:05:20.285Z,94278.02
2019-03-01T11:07:50.166Z,94266.15
2019-03-01T11:10:38.766Z,94268.89
2019-03-01T11:13:09.644Z,94262.41
2019-03-01T11:15:38.269Z,94254.68
2019-03-01T11:18:07.007Z,94247.42
2019-03-01T11:20:35.688Z,94250.06
2019-03-01T11:23:04.321Z,94233.07
2019-03-01T11:25:32.903Z,94238.64
2019-03-01T11:28:01.515Z,94233.11
2019-03-01T11:30:35.759Z,94225.27
2019-03-01T11:33:04.393Z,94230.22
2019-03-01T11:35:33.285Z,94228.41
2019-03-01T11:38:01.932Z,94227.45
2019-03-01T11:40:32.925Z,94226.83
2019-03-01T11:43:01.841Z,94223.08
2019-03-01T11:45:30.431Z,94228.88
2019-03-01T11:47:58.988Z,94232.38
2019-03-01T11:50:27.655Z,94233.52
2019-03-01T11:52:56.490Z,94229.56
2019-03-01T11:55:25.151Z,94228.25
2019-03-01T11:57:53.710Z,94228.06
2019-03-01T12:00:23.827Z,94218.95
2019-03-01T12:02:52.752Z,94232.56
2019-03-01T12:05:21.628Z,94221.55
2019-03-01T12:07:50.322Z,94215.63
2019-03-01T12:10:31.822Z,94218.17
2019-03-01T12:13:00.471Z,94209.86
2019-03-01T12:15:29.123Z,94208.16
2019-03-01T12:17:57.721Z,94214.12
2019-03-01T12:20:28.461Z,94204.90
2019-03-01T12:22:57.099Z,94203.44
2019-03-01T12:25:25.947Z,94203.88
2019-03-01T12:27:54.509Z,94193.97
2019-03-01T12:30:26.844Z,94188.84
2019-03-01T12:32:55.694Z,94189.27
2019-03-01T12:35:24.332Z,94180.62
2019-03-01T12:37:53.066Z,94186.50
2019-03-01T12:40:29.202Z,94175.43
2019-03-01T12:42:58.039Z,94165.38
2019-03-01T12:45:26.664Z,94172.73
2019-03-01T12:47:55.334Z,94177.41
2019-03-01T12:50:23.975Z,94167.27
2019-03-01T12:52:52.714Z,94164.75
2019-03-01T12:55:26.538Z,94173.83
2019-03-01T12:57:55.277Z,94164.68
2019-03-01T13:00:29.381Z,94156.09
2019-03-01T13:02:58.161Z,94164.21
2019-03-01T13:05:29.204Z,94153.84
2019-03-01T13:07:57.006Z,94153.21
2019-03-01T13:10:33.319Z,94157.89
2019-03-01T13:13:03.694Z,94159.78
2019-03-01T13:15:32.994Z,94152.96
2019-03-01T13:18:03.252Z,94140.52
2019-03-01T13:20:33.863Z,94149.13
2019-03-01T13:23:05.006Z,94137.59
2019-03-01T13:25:32.750Z,94137.75
2019-03-01T13:28:01.268Z,94131.20
2019-03-01T13:30:32.592Z,94129.89
2019-03-01T13:33:02.430Z,94125.08
2019-03-01T13:35:30.677Z,94124.95
2019-03-01T13:37:59.195Z,94125.01
2019-03-01T13:40:27.979Z,94130.05
2019-03-01T13:42:56.596Z,94121.62
2019-03-01T13:45:26.708Z,94116.50
2019-03-01T13:47:55.464Z,94115.59
2019-03-01T13:50:24.129Z,94118.45
2019-03-01T13:52:52.777Z,94112.36
2019-03-01T13:55:23.719Z,94113.67
2019-03-01T13:57:51.800Z,94114.15
2019-03-01T14:00:21.635Z,94103.65
2019-03-01T14:02:50.536Z,94104.47
2019-03-01T14:05:19.678Z,94099.73
2019-03-01T14:07:51.986Z,94086.37
2019-03-01T14:10:21.445Z,94084.48
2019-03-01T14:12:50.022Z,94087.95
2019-03-01T14:15:18.748Z,94083.02
2019-03-01T14:17:47.425Z,94087.03
2019-03-01T14:20:20.399Z,94079.37
2019-03-01T14:22:49.265Z,94076.19
2019-03-01T14:25:18.276Z,94060.73
2019-03-01T14:27:47.029Z,94074.55
2019-03-01T14:30:25.201Z,94068.88
2019-03-01T14:32:57.645Z,94075.06
2019-03-01T14:35:26.890Z,94075.91
2019-03-01T14:37:55.678Z,94076.13
2019-03-01T14:40:24.470Z,94067.02
2019-03-01T14:42:52.948Z,94075.76
2019-03-01T14:45:32.131Z,94068.41
2019-03-01T14:48:00.772Z,94072.34
2019-03-01T14:50:33.686Z,94070.58
2019-03-01T14:53:00.948Z,94058.33
2019-03-01T14:55:35.705Z,94066.86
2019-03-01T14:58:10.122Z,94061.26
2019-03-01T15:00:50.988Z,94063.39
2019-03-01T15:03:32.610Z,94068.97
2019-03-01T15:06:01.314Z,94072.63
2019-03-01T15:08:29.884Z,94068.50
2019-03-01T15:11:00.626Z,94076.52
2019-03-01T15:13:31.331Z,94073.89
2019-03-01T15:16:01.093Z,94079.42
2019-03-01T15:18:32.430Z,94079.80
2019-03-01T15:21:02.451Z,94076.59
2019-03-01T15:23:30.933Z,94089.14
2019-03-01T15:25:59.468Z,94086.25
2019-03-01T15:28:28.116Z,94085.94
2019-03-01T15:30:57.380Z,94084.82
2019-03-01T15:33:25.970Z,94086.83
2019-03-01T15:35:54.492Z,94095.73
2019-03-01T15:38:23.936Z,94092.91
2019-03-01T15:40:53.603Z,94090.91
2019-03-01T15:43:22.163Z,94090.28
2019-03-01T15:45:50.651Z,94093.92
2019-03-01T15:48:19.410Z,94099.56
2019-03-01T15:50:48.048Z,94100.73
2019-03-01T15:53:16.549Z,94103.88
2019-03-01T15:55:45.213Z,94099.73
2019-03-01T15:58:13.849Z,94098.34
2019-03-01T16:00:48.165Z,94096.11
2019-03-01T16:03:16.794Z,94112.27
2019-03-01T16:05:45.685Z,94105.88
2019-03-01T16:08:14.367Z,94111.14
2019-03-01T16:10:43.006Z,94107.87
2019-03-01T16:13:13.017Z,94101.44
2019-03-01T16:15:41.977Z,94109.95
2019-03-01T16:18:10.468Z,94112.80
2019-03-01T16:20:39.145Z,94117.04
2019-03-01T16:23:07.863Z,94110.27
2019-03-01T16:25:36.590Z,94120.38
2019-03-01T16:28:05.255Z,94122.59
2019-03-01T16:30:33.931Z,94127.09
2019-03-01T16:33:02.567Z,94121.02
2019-03-01T16:35:31.196Z,94130.65
2019-03-01T16:38:02.455Z,94125.63
2019-03-01T16:40:31.133Z,94127.67
2019-03-01T16:42:59.790Z,94111.39
2019-03-01T16:45:28.466Z,94128.65
2019-03-01T16:47:56.979Z,94133.20
2019-03-01T16:50:25.600Z,94132.27
2019-03-01T16:52:54.272Z,94131.58
2019-03-01T16:55:30.533Z,94130.39
2019-03-01T16:58:06.882Z,94131.83
2019-03-01T17:00:29.587Z,94130.01
2019-03-01T17:03:16.614Z,94126.95
2019-03-01T17:05:43.332Z,94132.67
2019-03-01T17:08:11.832Z,94133.42
2019-03-01T17:10:40.373Z,94134.86
2019-03-01T17:13:09.000Z,94130.66
2019-03-01T17:15:37.639Z,94136.84
2019-03-01T17:18:11.322Z,94132.80
2019-03-01T17:20:38.438Z,94138.66
2019-03-01T17:23:07.222Z,94140.25
2019-03-01T17:25:35.920Z,94141.95
2019-03-01T17:28:04.564Z,94143.30
2019-03-01T17:30:33.197Z,94143.30
2019-03-01T17:33:01.986Z,94143.69
2019-03-01T17:35:30.469Z,94143.30
2019-03-01T17:37:59.097Z,94150.56
2019-03-01T17:40:29.410Z,94150.41
2019-03-01T17:42:57.985Z,94156.33
2019-03-01T17:45:27.031Z,94160.64
2019-03-01T17:47:55.727Z,94166.02
2019-03-01T17:50:24.358Z,94163.75
2019-03-01T17:52:52.937Z,94159.52
2019-03-01T17:55:26.074Z,94165.89
2019-03-01T17:57:54.711Z,94161.30
2019-03-01T18:00:37.370Z,94164.40
2019-03-01T18:03:06.012Z,94168.78
2019-03-01T18:05:37.079Z,94174.27
2019-03-01T18:08:05.374Z,94171.69
2019-03-01T18:10:33.932Z,94177.06
2019-03-01T18:13:02.589Z,94166.50
2019-03-01T18:15:31.259Z,94170.67
2019-03-01T18:17:59.881Z,94168.41
2019-03-01T18:20:28.501Z,94160.53
2019-03-01T18:22:59.363Z,94168.40
2019-03-01T18:25:27.657Z,94162.63
2019-03-01T18:27:56.153Z,94160.90
2019-03-01T18:30:27.317Z,94160.34
2019-03-01T18:32:55.873Z,94159.93
2019-03-01T18:35:24.501Z,94160.28
2019-03-01T18:37:54.891Z,94163.22
2019-03-01T18:40:23.589Z,94159.42
2019-03-01T18:42:52.225Z,94168.14
2019-03-01T18:45:23.331Z,94166.72
2019-03-01T18:47:51.953Z,94166.92
2019-03-01T18:50:35.253Z,94166.50
2019-03-01T18:53:04.334Z,94168.63
2019-03-01T18:55:33.279Z,94175.33
2019-03-01T18:58:01.955Z,94176.13
2019-03-01T19:00:36.898Z,94171.56
2019-03-01T19:03:06.574Z,94178.41
2019-03-01T19:05:36.620Z,94174.04
2019-03-01T19:08:06.110Z,94173.94
2019-03-01T19:10:35.791Z,94180.73
2019-03-01T19:13:04.640Z,94177.89
2019-03-01T19:15:33.475Z,94170.27
2019-03-01T19:18:02.356Z,94167.98
2019-03-01T19:20:34.120Z,94167.98
2019-03-01T19:23:02.759Z,94166.44
2019-03-01T19:25:31.481Z,94166.97
2019-03-01T19:28:00.065Z,94166.89
2019-03-01T19:30:28.685Z,94168.70
2019-03-01T19:32:58.963Z,94169.77
2019-03-01T19:35:29.730Z,94164.41
2019-03-01T19:37:57.938Z,94171.19
2019-03-01T19:40:26.602Z,94162.52
2019-03-01T19:42:57.224Z,94168.59
2019-03-01T19:45:25.326Z,94166.96
2019-03-01T19:47:53.991Z,94169.97
2019-03-01T19:50:25.866Z,94165.91
2019-03-01T19:52:54.640Z,94170.58
2019-03-01T19:55:23.184Z,94166.59
2019-03-01T19:57:51.806Z,94176.58
2019-03-01T20:00:23.097Z,94168.52
2019-03-01T20:02:51.594Z,94164.13
2019-03-01T20:05:27.781Z,94165.48
2019-03-01T20:07:56.109Z,94166.59
2019-03-01T20:10:25.041Z,94160.05
2019-03-01T20:12:53.691Z,94157.39
2019-03-01T20:15:24.775Z,94156.63
2019-03-01T20:17:53.702Z,94161.56
2019-03-01T20:20:23.919Z,94159.66
2019-03-01T20:22:54.184Z,94165.22
2019-03-01T20:25:22.942Z,94159.48
2019-03-01T20:27:51.618Z,94164.13
2019-03-01T20:30:30.667Z,94158.75
2019-03-01T20:32:59.543Z,94165.78
2019-03-01T20:35:28.194Z,94161.38
2019-03-01T20:38:00.074Z,94163.41
2019-03-01T20:40:28.431Z,94160.09
2019-03-01T20:43:01.315Z,94156.31
2019-03-01T20:45:31.228Z,94154.50
2019-03-01T20:48:00.046Z,94159.94
2019-03-01T20:50:28.677Z,94150.52
2019-03-01T20:52:57.227Z,94146.76
2019-03-01T20:55:25.755Z,94150.68
2019-03-01T20:57:54.397Z,94146.27
2019-03-01T21:00:26.115Z,94147.99
2019-03-01T21:02:55.424Z,94151.16
2019-03-01T21:05:25.118Z,94151.13
2019-03-01T21:08:00.193Z,94150.20
2019-03-01T21:10:30.130Z,94157.28
2019-03-01T21:12:58.699Z,94148.78
2019-03-01T21:15:27.291Z,94160.83
2019-03-01T21:17:56.850Z,94165.02
2019-03-01T21:20:25.976Z,94162.27
2019-03-01T21:22:54.500Z,94162.11
2019-03-01T21:25:24.319Z,94159.53
2019-03-01T21:27:52.949Z,94156.22
2019-03-01T21:30:29.806Z,94152.05
2019-03-01T21:32:58.431Z,94153.53
2019-03-01T21:35:27.106Z,94154.65
2019-03-01T21:37:55.679Z,94156.34
2019-03-01T21:40:24.159Z,94153.46
2019-03-01T21:42:57.304Z,94163.78
2019-03-01T21:45:24.229Z,94153.97
2019-03-01T21:47:52.801Z,94155.33
2019-03-01T21:50:21.482Z,94148.68
2019-03-01T21:52:50.113Z,94147.44
2019-03-01T21:55:28.645Z,94143.16
2019-03-01T21:57:57.639Z,94139.21
2019-03-01T22:00:31.500Z,94140.81
2019-03-01T22:03:00.481Z,94141.95
2019-03-01T22:05:29.105Z,94138.98
2019-03-01T22:07:57.608Z,94144.03
2019-03-01T22:10:26.160Z,94136.34
2019-03-01T22:12:56.874Z,94134.69
2019-03-01T22:15:29.364Z,94133.82
2019-03-01T22:17:58.137Z,94136.12
2019-03-01T22:20:26.706Z,94134.29
2019-03-01T22:22:55.344Z,94134.92
2019-03-01T22:25:24.012Z,94133.42
2019-03-01T22:27:52.508Z,94136.16
2019-03-01T22:30:31.699Z,94136.67
2019-03-01T22:33:00.358Z,94135.31
2019-03-01T22:35:29.000Z,94133.78
2019-03-01T22:38:00.851Z,94134.70
2019-03-01T22:40:29.203Z,94134.36
2019-03-01T22:42:58.098Z,94135.15
2019-03-01T22:45:26.703Z,94129.07
2019-03-01T22:47:55.339Z,94132.42
2019-03-01T22:50:23.976Z,94135.48
2019-03-01T22:52:52.508Z,94136.14
2019-03-01T22:55:21.534Z,94140.08
2019-03-01T22:57:50.173Z,94140.57
2019-03-01T23:00:47.566Z,94136.48
2019-03-01T23:03:18.932Z,94139.98
2019-03-01T23:05:47.341Z,94141.33
2019-03-01T23:08:16.118Z,94141.95
2019-03-01T23:10:44.729Z,94129.55
2019-03-01T23:13:16.824Z,94131.64
2019-03-01T23:15:44.582Z,94129.95
2019-03-01T23:18:13.408Z,94130.70
2019-03-01T23:20:42.557Z,94130.84
2019-03-01T23:23:11.158Z,94133.09
2019-03-01T23:25:42.925Z,94124.75
2019-03-01T23:28:10.027Z,94131.13
2019-03-01T23:30:38.797Z,94131.55
2019-03-01T23:33:07.426Z,94137.63
2019-03-01T23:35:36.092Z,94139.03
2019-03-01T23:38:05.072Z,94134.80
2019-03-01T23:40:35.866Z,94142.21
2019-03-01T23:43:03.922Z,94145.09
2019-03-01T23:45:32.598Z,94141.66
2019-03-01T23:48:01.090Z,94138.18
2019-03-01T23:50:31.485Z,94144.72
2019-03-01T23:53:00.167Z,94142.30
2019-03-01T23:55:28.865Z,94141.41
2019-03-01T23:58:06.102Z,94145.63
